Time;durP1;ratioP1;P1;durP2;ratioP2;P2;SDS_P1;SDS_P2;PMS_P1;PMS_P2;Temp;Humidity;BMP_temperature;BMP_pressure;BME280_temperature;BME280_humidity;BME280_pressure;Samples;Min_cycle;Max_cycle;Signal;HPM_P1;HPM_P2
2022/09/10 00:01:32;;;;;;;6.25;4.50;;;;;;;10.76;80.81;100378.41;1803569;79;21537;-72
2022/09/10 00:04:00;;;;;;;7.67;4.08;;;;;;;10.78;81.30;100371.45;1791108;79;21044;-71
2022/09/10 00:06:27;;;;;;;5.92;4.12;;;;;;;10.72;81.71;100374.55;1748793;80;21197;-72
2022/09/10 00:09:00;;;;;;;6.42;4.22;;;;;;;10.70;81.62;100375.81;1743102;82;21508;-73
2022/09/10 00:11:29;;;;;;;4.83;3.72;;;;;;;10.68;81.86;100366.66;1727507;82;21552;-73
2022/09/10 00:13:56;;;;;;;5.62;4.15;;;;;;;10.63;82.65;100368.41;1742723;81;21006;-71
2022/09/10 00:16:22;;;;;;;6.05;4.25;;;;;;;10.59;83.06;100364.02;1737480;82;21082;-74
2022/09/10 00:18:49;;;;;;;7.37;4.45;;;;;;;10.57;83.34;100366.12;1792277;79;21156;-75
2022/09/10 00:21:19;;;;;;;5.85;4.25;;;;;;;10.55;83.55;100358.80;1779579;80;21071;-72
2022/09/10 00:23:47;;;;;;;6.53;5.80;;;;;;;10.52;83.89;100359.27;1785737;79;20956;-73
2022/09/10 00:26:21;;;;;;;5.08;4.58;;;;;;;10.48;83.89;100358.92;1781043;79;20952;-73
2022/09/10 00:28:49;;;;;;;5.35;4.28;;;;;;;10.43;84.37;100352.08;1808108;79;26901;-74
2022/09/10 00:31:17;;;;;;;6.08;3.95;;;;;;;10.39;84.53;100350.09;1759491;80;21065;-73
2022/09/10 00:33:43;;;;;;;5.58;3.52;;;;;;;10.43;84.78;100348.56;1763324;80;20961;-74
2022/09/10 00:36:16;;;;;;;5.15;3.92;;;;;;;10.48;84.92;100349.52;1744572;80;21114;-72
2022/09/10 00:38:43;;;;;;;5.25;3.67;;;;;;;10.47;84.95;100343.02;1742834;82;21002;-73
2022/09/10 00:41:10;;;;;;;6.15;4.65;;;;;;;10.41;84.95;100346.10;1750440;80;21080;-73
2022/09/10 00:44:01;;;;;;;9.43;4.55;;;;;;;10.39;85.17;100346.88;1748345;80;21243;-73
2022/09/10 00:46:42;;;;;;;9.93;4.55;;;;;;;10.34;85.58;100344.06;1744747;80;21623;-72
2022/09/10 00:49:16;;;;;;;7.92;4.65;;;;;;;10.31;85.79;100343.16;1744739;80;21543;-73
2022/09/10 00:51:43;;;;;;;4.65;3.67;;;;;;;10.32;86.02;100339.43;1742390;82;21527;-72
2022/09/10 00:54:11;;;;;;;7.08;4.40;;;;;;;10.35;86.14;100341.67;1750216;80;21063;-72
2022/09/10 00:56:38;;;;;;;7.22;3.85;;;;;;;10.33;86.37;100338.91;1743995;80;21858;-73
2022/09/10 00:59:05;;;;;;;8.80;4.60;;;;;;;10.34;86.75;100339.20;1715772;82;21026;-72
2022/09/10 01:01:33;;;;;;;7.37;3.70;;;;;;;10.29;86.95;100341.25;1742410;82;21033;-73
2022/09/10 01:04:00;;;;;;;4.83;3.55;;;;;;;10.30;87.12;100342.89;1756413;81;20992;-73
2022/09/10 01:06:27;;;;;;;6.15;3.45;;;;;;;10.27;87.56;100344.69;1777838;80;21054;-72
2022/09/10 01:08:54;;;;;;;8.60;3.98;;;;;;;10.23;88.05;100345.37;1777710;80;21447;-73
2022/09/10 01:11:57;;;;;;;3.62;3.33;;;;;;;10.21;88.48;100340.78;1800763;79;21239;-73
2022/09/10 01:14:36;;;;;;;7.08;4.67;;;;;;;10.26;88.72;100340.91;1736070;81;21105;-72
2022/09/10 01:17:36;;;;;;;10.75;4.40;;;;;;;10.30;88.80;100334.83;1782481;80;21044;-72
2022/09/10 01:20:23;;;;;;;5.37;3.95;;;;;;;10.35;88.43;100331.44;1782480;80;21098;-72
2022/09/10 01:23:17;;;;;;;5.58;4.55;;;;;;;10.34;88.04;100321.73;1777362;79;21087;-72
2022/09/10 01:26:27;;;;;;;9.93;4.97;;;;;;;10.33;87.86;100322.77;1760386;80;21003;-72
2022/09/10 01:29:22;;;;;;;9.45;5.00;;;;;;;10.28;87.83;100322.13;1789575;79;21044;-72
2022/09/10 01:32:14;;;;;;;6.72;5.70;;;;;;;10.25;88.12;100315.06;1759129;81;21070;-74
2022/09/10 01:35:06;;;;;;;6.58;4.87;;;;;;;10.22;88.54;100323.05;1775208;80;21036;-74
2022/09/10 01:37:34;;;;;;;5.05;2.90;;;;;;;10.16;88.64;100321.83;1752771;81;21888;-75
2022/09/10 01:40:01;;;;;;;8.50;4.25;;;;;;;10.15;88.88;100327.70;1775438;80;20964;-74
2022/09/10 01:42:31;;;;;;;4.80;3.92;;;;;;;10.15;88.91;100325.53;1780197;79;21116;-73
2022/09/10 01:44:58;;;;;;;6.03;4.30;;;;;;;10.17;89.14;100326.16;1756924;81;21105;-75
2022/09/10 01:48:01;;;;;;;5.87;4.58;;;;;;;10.19;89.27;100320.02;1793352;79;20981;-75
2022/09/10 01:50:37;;;;;;;5.40;3.58;;;;;;;10.18;89.36;100323.75;1743683;81;21114;-74
2022/09/10 01:53:35;;;;;;;6.08;4.50;;;;;;;10.16;89.63;100324.52;1758358;81;20893;-75
2022/09/10 01:56:25;;;;;;;4.50;3.40;;;;;;;10.12;89.88;100323.32;1785167;79;21020;-74
2022/09/10 01:58:53;;;;;;;6.62;4.08;;;;;;;10.07;90.05;100332.08;1722364;80;21121;-75
2022/09/10 02:01:42;;;;;;;4.50;3.50;;;;;;;10.08;90.39;100337.20;1775143;79;20981;-74
2022/09/10 02:04:09;;;;;;;5.72;4.08;;;;;;;10.11;91.00;100335.12;1758336;80;22114;-75
2022/09/10 02:06:38;;;;;;;5.95;3.90;;;;;;;10.15;91.12;100332.25;1811204;79;21052;-74
2022/09/10 02:09:05;;;;;;;5.20;3.87;;;;;;;10.17;90.91;100327.52;1785463;79;21568;-75
2022/09/10 02:11:46;;;;;;;5.20;4.65;;;;;;;10.19;90.78;100326.22;1781804;79;21657;-75
2022/09/10 02:14:15;;;;;;;6.62;3.98;;;;;;;10.19;90.60;100322.70;1781692;79;21533;-75
2022/09/10 02:17:00;;;;;;;4.20;3.60;;;;;;;10.16;90.69;100325.34;1733863;80;21259;-74
2022/09/10 02:19:28;;;;;;;6.20;3.98;;;;;;;10.14;91.00;100323.37;1787091;79;20980;-72
2022/09/10 02:21:56;;;;;;;10.25;4.67;;;;;;;10.17;91.10;100328.86;1782049;79;21075;-74
2022/09/10 02:24:24;;;;;;;3.65;3.35;;;;;;;10.17;91.12;100323.48;1768970;79;21075;-72
2022/09/10 02:26:50;;;;;;;8.43;3.72;;;;;;;10.14;91.45;100314.48;1750754;79;20991;-72
2022/09/10 02:29:18;;;;;;;5.60;4.00;;;;;;;10.12;91.58;100320.62;1788442;79;21204;-72
2022/09/10 02:31:46;;;;;;;3.65;3.33;;;;;;;10.13;91.81;100315.00;1766935;79;20968;-71
2022/09/10 02:34:15;;;;;;;4.80;3.42;;;;;;;10.10;92.04;100311.45;1810356;79;21044;-72
2022/09/10 02:36:44;;;;;;;5.50;4.50;;;;;;;10.10;92.04;100304.73;1812267;79;20969;-73
2022/09/10 02:39:10;;;;;;;4.25;3.85;;;;;;;10.17;92.22;100302.77;1791717;79;21008;-74
2022/09/10 02:41:39;;;;;;;6.22;4.22;;;;;;;10.18;91.98;100300.90;1779767;80;21009;-73
2022/09/10 02:44:06;;;;;;;4.67;3.50;;;;;;;10.17;91.96;100293.36;1782300;79;21512;-73
2022/09/10 02:46:33;;;;;;;5.30;3.60;;;;;;;10.19;91.94;100292.61;1724268;81;20978;-74
2022/09/10 02:49:00;;;;;;;5.75;4.47;;;;;;;10.20;91.89;100286.19;1791433;79;21027;-74
2022/09/10 02:51:29;;;;;;;4.78;3.50;;;;;;;10.18;91.86;100280.22;1809238;79;21066;-75
2022/09/10 02:53:55;;;;;;;4.00;3.60;;;;;;;10.18;91.88;100283.42;1786592;79;21007;-74
2022/09/10 02:56:22;;;;;;;4.58;3.65;;;;;;;10.16;92.14;100278.30;1811698;79;21115;-75
2022/09/10 02:58:51;;;;;;;4.40;3.72;;;;;;;10.14;92.02;100283.05;1741274;82;21059;-74
2022/09/10 03:01:19;;;;;;;5.28;4.15;;;;;;;10.16;92.10;100279.65;1778265;80;21569;-74
2022/09/10 03:03:55;;;;;;;4.20;3.80;;;;;;;10.14;92.11;100272.81;1780109;79;21028;-74
2022/09/10 03:06:22;;;;;;;3.45;3.12;;;;;;;10.10;92.29;100267.09;1781641;79;21089;-72
2022/09/10 03:08:49;;;;;;;5.85;3.92;;;;;;;10.08;92.45;100270.01;1800987;79;21031;-74
2022/09/10 03:11:16;;;;;;;3.67;3.37;;;;;;;10.03;92.98;100263.17;1805815;79;21055;-75
2022/09/10 03:13:44;;;;;;;5.05;3.72;;;;;;;9.97;93.54;100268.14;1759796;80;21022;-75
2022/09/10 03:16:12;;;;;;;3.72;3.42;;;;;;;9.94;93.83;100261.05;1770328;80;21290;-75
2022/09/10 03:18:41;;;;;;;11.10;3.62;;;;;;;9.91;94.43;100264.21;1744776;81;21916;-75
2022/09/10 03:21:17;;;;;;;5.75;4.78;;;;;;;9.90;94.36;100258.02;1742530;82;21027;-74
2022/09/10 03:23:45;;;;;;;4.28;3.83;;;;;;;9.94;94.60;100261.05;1748996;80;21116;-76
2022/09/10 03:26:13;;;;;;;3.75;3.45;;;;;;;9.91;94.62;100260.19;1750455;80;21179;-73
2022/09/10 03:28:42;;;;;;;3.42;3.12;;;;;;;9.90;94.96;100264.73;1743927;81;21090;-74
2022/09/10 03:31:10;;;;;;;4.85;3.67;;;;;;;9.94;95.26;100266.42;1742240;81;22267;-73
2022/09/10 03:33:41;;;;;;;6.72;4.03;;;;;;;9.96;95.46;100261.65;1744308;80;21022;-75
2022/09/10 03:36:08;;;;;;;7.62;3.98;;;;;;;10.01;95.53;100259.91;1753683;80;21504;-74
2022/09/10 03:38:36;;;;;;;5.30;3.80;;;;;;;10.04;95.51;100250.55;1745724;80;21715;-74
2022/09/10 03:41:02;;;;;;;4.47;4.08;;;;;;;10.02;95.49;100252.12;1743226;80;21078;-75
2022/09/10 03:43:31;;;;;;;4.70;4.03;;;;;;;10.01;95.51;100249.68;1746827;81;21162;-75
2022/09/10 03:45:58;;;;;;;44.48;31.93;;;;;;;10.01;95.66;100257.74;1714152;82;20994;-74
2022/09/10 03:48:25;;;;;;;10.08;7.67;;;;;;;9.98;95.97;100256.84;1760965;80;21639;-73
2022/09/10 03:50:52;;;;;;;8.60;5.65;;;;;;;9.96;96.10;100260.31;1773006;80;21819;-71
2022/09/10 03:53:18;;;;;;;5.55;4.37;;;;;;;9.97;96.32;100256.58;1755267;80;21005;-74
2022/09/10 03:55:46;;;;;;;4.22;3.83;;;;;;;9.97;96.68;100249.34;1742161;82;21200;-75
2022/09/10 03:58:14;;;;;;;3.83;3.52;;;;;;;10.00;96.68;100248.04;1736159;82;20991;-74
2022/09/10 04:00:41;;;;;;;4.15;3.72;;;;;;;10.01;96.72;100253.71;1768496;81;21583;-74
2022/09/10 04:03:09;;;;;;;4.75;4.33;;;;;;;10.01;96.79;100251.03;1768428;81;21093;-75
2022/09/10 04:05:39;;;;;;;4.47;3.90;;;;;;;9.99;97.07;100251.77;1757951;81;21130;-74
2022/09/10 04:08:06;;;;;;;4.92;3.70;;;;;;;9.94;97.29;100251.13;1742617;82;21551;-73
2022/09/10 04:10:35;;;;;;;4.37;3.98;;;;;;;9.92;97.64;100247.05;1749629;80;21622;-74
2022/09/10 04:13:03;;;;;;;5.42;4.30;;;;;;;9.94;98.18;100260.53;1758240;80;21047;-74
2022/09/10 04:15:33;;;;;;;7.08;4.05;;;;;;;9.97;98.16;100261.43;1766714;80;21062;-73
2022/09/10 04:18:02;;;;;;;4.67;4.28;;;;;;;10.02;98.25;100259.39;1771517;80;21000;-73
2022/09/10 04:20:29;;;;;;;4.83;3.83;;;;;;;10.00;98.43;100263.64;1773819;80;21013;-74
2022/09/10 04:22:57;;;;;;;5.03;3.80;;;;;;;10.00;98.51;100258.27;1746051;80;20994;-74
2022/09/10 04:25:27;;;;;;;4.33;3.80;;;;;;;10.01;98.44;100251.84;1714036;82;21041;-73
2022/09/10 04:27:53;;;;;;;4.47;3.98;;;;;;;10.03;98.47;100250.25;1756039;81;21055;-74
2022/09/10 04:30:20;;;;;;;3.60;3.33;;;;;;;10.06;98.62;100245.25;1791606;79;21051;-73
2022/09/10 04:32:48;;;;;;;4.08;3.67;;;;;;;10.04;99.05;100246.00;1782275;80;21411;-74
2022/09/10 04:35:15;;;;;;;4.05;3.65;;;;;;;10.03;99.10;100244.88;1788118;79;21027;-74
2022/09/10 04:37:42;;;;;;;11.35;4.08;;;;;;;10.04;99.32;100237.94;1793065;79;21031;-73
2022/09/10 04:40:10;;;;;;;8.53;4.75;;;;;;;10.03;99.56;100238.16;1793966;79;20996;-72
2022/09/10 04:42:38;;;;;;;5.58;4.20;;;;;;;10.05;99.69;100234.20;1788545;79;21533;-73
2022/09/10 04:45:06;;;;;;;4.90;3.60;;;;;;;10.05;99.60;100223.45;1800689;79;21615;-74
2022/09/10 04:47:35;;;;;;;6.45;3.85;;;;;;;10.03;99.87;100230.91;1762732;79;21054;-77
2022/09/10 04:50:02;;;;;;;5.10;3.85;;;;;;;10.02;99.79;100219.87;1714770;82;20979;-73
2022/09/10 04:52:29;;;;;;;8.10;4.17;;;;;;;10.03;99.96;100222.03;1755098;80;21582;-75
2022/09/10 04:54:56;;;;;;;6.33;4.47;;;;;;;10.05;100.00;100223.45;1745293;80;21071;-73
2022/09/10 04:57:24;;;;;;;4.37;3.85;;;;;;;10.08;100.00;100216.78;1736329;82;21615;-72
2022/09/10 04:59:52;;;;;;;4.15;3.83;;;;;;;10.14;100.00;100221.75;1742447;80;21108;-75
2022/09/10 05:02:20;;;;;;;5.65;4.92;;;;;;;10.11;100.00;100224.91;1746689;81;21109;-75
2022/09/10 05:04:47;;;;;;;4.42;3.58;;;;;;;10.11;100.00;100215.52;1742126;82;21030;-73
2022/09/10 05:07:14;;;;;;;5.33;4.83;;;;;;;10.05;100.00;100219.42;1742669;81;21063;-75
2022/09/10 05:09:44;;;;;;;7.70;3.80;;;;;;;10.06;100.00;100217.03;1712151;83;22223;-78
2022/09/10 05:12:12;;;;;;;4.22;3.80;;;;;;;10.12;100.00;100211.22;1717371;83;21518;-74
2022/09/10 05:14:39;;;;;;;4.37;3.10;;;;;;;10.15;100.00;100204.05;1745039;82;20960;-75
2022/09/10 05:17:07;;;;;;;4.05;3.60;;;;;;;10.19;100.00;100201.73;1690758;84;21684;-75
2022/09/10 05:19:36;;;;;;;5.03;4.40;;;;;;;10.20;100.00;100211.45;1720534;82;21098;-75
2022/09/10 05:22:07;;;;;;;4.20;3.83;;;;;;;10.15;100.00;100212.64;1697980;83;21237;-73
2022/09/10 05:24:34;;;;;;;4.10;3.70;;;;;;;10.13;100.00;100208.84;1726182;82;21000;-74
2022/09/10 05:27:02;;;;;;;5.10;4.58;;;;;;;10.10;100.00;100213.34;1716207;82;21059;-74
2022/09/10 05:29:29;;;;;;;4.05;3.72;;;;;;;10.04;100.00;100211.58;1697249;81;20987;-73
2022/09/10 05:32:01;;;;;;;4.80;3.87;;;;;;;10.06;100.00;100206.80;1731306;82;21016;-74
2022/09/10 05:34:29;;;;;;;5.40;4.90;;;;;;;10.13;100.00;100199.95;1759395;81;21201;-72
2022/09/10 05:36:56;;;;;;;5.53;4.55;;;;;;;10.18;100.00;100197.41;1754468;81;21773;-71
2022/09/10 05:39:23;;;;;;;5.35;3.95;;;;;;;10.24;100.00;100200.51;1731763;82;21102;-74
2022/09/10 05:41:51;;;;;;;5.87;4.75;;;;;;;10.23;100.00;100199.69;1704057;82;20988;-72
2022/09/10 05:44:17;;;;;;;5.17;4.67;;;;;;;10.17;100.00;100203.31;1765114;80;21114;-73
2022/09/10 05:46:46;;;;;;;4.62;4.22;;;;;;;10.07;100.00;100206.55;1749150;81;21119;-73
2022/09/10 05:49:15;;;;;;;5.03;4.58;;;;;;;10.02;100.00;100208.33;1745930;81;21375;-72
2022/09/10 05:51:42;;;;;;;5.22;4.72;;;;;;;10.03;100.00;100207.25;1734311;81;20973;-70
2022/09/10 05:54:10;;;;;;;4.60;4.20;;;;;;;9.99;100.00;100206.91;1745480;82;21090;-70
2022/09/10 05:56:37;;;;;;;6.42;5.83;;;;;;;10.02;100.00;100201.61;1727621;82;21075;-71
2022/09/10 05:59:04;;;;;;;6.17;4.87;;;;;;;10.04;100.00;100200.31;1734265;82;21807;-69
2022/09/10 06:01:32;;;;;;;5.97;5.47;;;;;;;10.02;100.00;100205.64;1743610;81;21040;-73
2022/09/10 06:04:00;;;;;;;5.15;4.67;;;;;;;9.98;100.00;100201.23;1732915;81;21008;-72
2022/09/10 06:06:30;;;;;;;5.15;4.65;;;;;;;9.98;100.00;100203.92;1770244;80;21571;-76
2022/09/10 06:08:59;;;;;;;6.95;5.40;;;;;;;10.02;100.00;100194.89;1794361;79;21149;-73
2022/09/10 06:11:43;;;;;;;5.40;4.90;;;;;;;10.00;100.00;100195.12;1725791;82;21261;-73
2022/09/10 06:14:11;;;;;;;4.85;4.25;;;;;;;10.01;100.00;100199.97;1749843;81;20971;-72
2022/09/10 06:16:40;;;;;;;6.45;5.33;;;;;;;9.99;100.00;100206.91;1795762;79;21016;-72
2022/09/10 06:19:08;;;;;;;5.85;5.03;;;;;;;9.99;100.00;100202.87;1782664;80;21391;-71
2022/09/10 06:21:40;;;;;;;5.80;4.80;;;;;;;10.03;100.00;100200.53;1783419;79;20963;-73
2022/09/10 06:24:06;;;;;;;5.60;5.10;;;;;;;10.03;100.00;100215.31;1756473;81;21835;-73
2022/09/10 06:26:37;;;;;;;7.12;4.33;;;;;;;10.01;100.00;100216.91;1786146;79;21497;-72
2022/09/10 06:29:06;;;;;;;8.28;4.83;;;;;;;10.03;100.00;100208.59;1767432;80;21054;-73
2022/09/10 06:31:33;;;;;;;5.60;4.95;;;;;;;10.11;100.00;100210.13;1752065;80;21022;-74
2022/09/10 06:34:07;;;;;;;5.62;4.83;;;;;;;10.17;100.00;100198.48;1775477;79;21040;-74
2022/09/10 06:36:34;;;;;;;4.92;4.53;;;;;;;10.16;100.00;100200.35;1765149;80;21772;-76
2022/09/10 06:39:08;;;;;;;5.50;4.12;;;;;;;10.10;100.00;100207.15;1803091;78;21094;-75
2022/09/10 06:41:42;;;;;;;5.85;5.35;;;;;;;10.11;100.00;100209.61;1792062;78;21003;-76
2022/09/10 06:44:12;;;;;;;7.70;5.22;;;;;;;10.16;100.00;100204.38;1803080;78;21049;-74
2022/09/10 06:46:48;;;;;;;7.03;6.42;;;;;;;10.18;100.00;100210.33;1799616;78;21070;-73
2022/09/10 06:49:20;;;;;;;7.10;4.87;;;;;;;10.15;100.00;100216.16;1802671;78;21169;-76
2022/09/10 06:51:50;;;;;;;7.00;6.22;;;;;;;10.11;100.00;100201.55;1804551;78;21056;-74
2022/09/10 06:54:18;;;;;;;6.47;5.85;;;;;;;10.05;100.00;100209.19;1793136;80;21102;-73
2022/09/10 06:56:45;;;;;;;6.85;6.25;;;;;;;10.03;100.00;100205.39;1802166;78;21047;-72
2022/09/10 06:59:17;;;;;;;5.83;5.42;;;;;;;10.07;100.00;100203.08;1826162;78;21078;-73
2022/09/10 07:01:46;;;;;;;;;;;;;;;10.05;100.00;100203.30;1824762;78;21265;-75
2022/09/10 07:04:16;;;;;;;5.83;5.22;;;;;;;10.00;100.00;100207.21;1814176;78;20184;-70
2022/09/10 07:06:45;;;;;;;7.35;6.62;;;;;;;9.98;100.00;100201.23;1806408;78;21460;-73
2022/09/10 07:09:14;;;;;;;7.80;6.97;;;;;;;9.97;100.00;100196.94;1806143;78;21089;-75
2022/09/10 07:11:56;;;;;;;12.70;10.98;;;;;;;9.94;100.00;100195.22;1793589;78;21028;-78
2022/09/10 07:14:23;;;;;;;7.97;5.78;;;;;;;9.98;100.00;100191.83;1789053;78;21209;-74
2022/09/10 07:16:56;;;;;;;5.60;5.08;;;;;;;10.00;100.00;100180.86;1787374;80;20936;-72
2022/09/10 07:19:27;;;;;;;6.70;5.53;;;;;;;9.97;100.00;100192.91;1787762;80;20881;-73
2022/09/10 07:21:55;;;;;;;6.65;5.67;;;;;;;9.97;100.00;100187.53;1763313;80;21026;-74
2022/09/10 07:24:29;;;;;;;6.03;5.42;;;;;;;9.97;100.00;100192.08;1787410;80;21551;-73
2022/09/10 07:27:10;;;;;;;5.45;5.05;;;;;;;9.95;100.00;100198.20;1787388;79;21149;-75
2022/09/10 07:29:38;;;;;;;9.83;5.75;;;;;;;9.96;100.00;100195.30;1787663;80;21493;-74
2022/09/10 07:32:08;;;;;;;7.00;5.87;;;;;;;10.02;100.00;100180.91;1787227;80;21039;-75
2022/09/10 07:34:41;;;;;;;6.80;6.10;;;;;;;10.05;100.00;100201.12;1788199;80;21056;-74
2022/09/10 07:37:09;;;;;;;12.20;5.67;;;;;;;10.07;100.00;100195.02;1789441;80;21008;-74
2022/09/10 07:39:37;;;;;;;7.25;6.10;;;;;;;10.05;100.00;100193.89;1787691;80;21559;-72
2022/09/10 07:42:04;;;;;;;6.45;5.70;;;;;;;10.04;100.00;100198.97;1763030;80;20971;-76
2022/09/10 07:44:34;;;;;;;5.35;4.83;;;;;;;10.05;100.00;100200.61;1718305;82;20966;-73
2022/09/10 07:47:05;;;;;;;6.20;5.60;;;;;;;10.08;100.00;100188.56;1742311;82;21078;-74
2022/09/10 07:49:33;;;;;;;5.42;4.92;;;;;;;10.04;100.00;100192.77;1742514;82;21558;-77
2022/09/10 07:51:59;;;;;;;5.53;5.08;;;;;;;10.02;100.00;100201.61;1716043;82;21767;-74
2022/09/10 07:54:30;;;;;;;7.20;6.28;;;;;;;10.01;100.00;100199.45;1746887;80;21085;-73
2022/09/10 07:56:59;;;;;;;5.62;4.15;;;;;;;9.99;100.00;100197.50;1733551;80;21023;-71
2022/09/10 07:59:27;;;;;;;5.17;4.67;;;;;;;9.95;100.00;100191.48;1764471;81;21063;-72
2022/09/10 08:01:59;;;;;;;6.87;4.72;;;;;;;9.95;100.00;100189.63;1782431;79;21023;-74
2022/09/10 08:04:31;;;;;;;9.10;5.95;;;;;;;9.95;100.00;100184.25;1780430;79;21504;-71
2022/09/10 08:07:00;;;;;;;7.05;5.12;;;;;;;9.95;100.00;100183.43;1787832;79;20960;-70
2022/09/10 08:09:28;;;;;;;10.80;5.05;;;;;;;9.93;100.00;100186.86;1789426;79;21083;-74
2022/09/10 08:11:55;;;;;;;5.17;4.72;;;;;;;9.94;100.00;100183.13;1781723;80;21106;-72
2022/09/10 08:14:23;;;;;;;5.85;5.35;;;;;;;9.91;100.00;100170.17;1798947;79;21019;-72
2022/09/10 08:16:52;;;;;;;5.28;4.87;;;;;;;9.91;100.00;100172.34;1746179;80;21114;-73
2022/09/10 08:19:21;;;;;;;5.10;4.70;;;;;;;9.95;100.00;100180.22;1772604;80;21049;-74
2022/09/10 08:21:48;;;;;;;4.50;4.12;;;;;;;9.95;100.00;100164.62;1773299;80;21069;-75
2022/09/10 08:24:18;;;;;;;7.50;5.87;;;;;;;9.95;100.00;100166.78;1754971;80;21064;-71
2022/09/10 08:26:47;;;;;;;5.92;5.42;;;;;;;9.94;100.00;100177.75;1747251;80;21026;-74
2022/09/10 08:29:13;;;;;;;5.35;4.85;;;;;;;9.94;100.00;100176.41;1755551;81;21013;-72
2022/09/10 08:31:41;;;;;;;9.65;5.85;;;;;;;9.91;100.00;100177.71;1785311;80;20975;-73
2022/09/10 08:34:13;;;;;;;7.08;5.05;;;;;;;9.92;100.00;100172.64;1788329;79;20948;-72
2022/09/10 08:36:44;;;;;;;6.17;5.25;;;;;;;9.96;100.00;100169.77;1803300;79;21567;-71
2022/09/10 08:39:15;;;;;;;6.00;5.20;;;;;;;9.95;100.00;100159.24;1806352;79;21080;-80
2022/09/10 08:41:56;;;;;;;6.35;5.67;;;;;;;9.93;100.00;100164.02;1802307;79;21988;-75
2022/09/10 08:45:04;;;;;;;9.95;5.67;;;;;;;9.89;100.00;100158.30;1797975;79;21777;-78
2022/09/10 08:47:57;;;;;;;7.90;6.20;;;;;;;9.86;100.00;100160.66;1788408;79;21049;-84
2022/09/10 08:50:55;;;;;;;8.78;7.90;;;;;;;9.91;100.00;100171.52;1794091;78;21301;-86
2022/09/10 08:53:54;;;;;;;6.42;5.70;;;;;;;9.93;100.00;100159.47;1796579;79;21500;-89
2022/09/10 08:56:21;;;;;;;8.55;6.28;;;;;;;9.92;100.00;100165.09;1763287;79;21312;-70
2022/09/10 08:59:11;;;;;;;7.28;6.15;;;;;;;9.89;100.00;100152.93;1747771;80;21503;-72
2022/09/10 09:01:58;;;;;;;10.00;6.67;;;;;;;9.94;100.00;100142.83;1751179;80;21010;-76
2022/09/10 09:04:50;;;;;;;7.40;6.67;;;;;;;9.97;100.00;100156.63;1771420;79;21057;-70
2022/09/10 09:07:18;;;;;;;8.38;5.92;;;;;;;9.96;100.00;100156.86;1716537;80;22230;-69
2022/09/10 09:09:50;;;;;;;5.75;5.25;;;;;;;9.92;100.00;100151.66;1761561;80;21632;-70
2022/09/10 09:12:44;;;;;;;7.12;6.42;;;;;;;9.91;100.00;100144.64;1762179;80;21082;-68
2022/09/10 09:15:17;;;;;;;6.85;6.25;;;;;;;9.91;100.00;100146.81;1749435;80;20923;-70
2022/09/10 09:18:09;;;;;;;6.20;5.60;;;;;;;9.89;100.00;100138.16;1749944;80;21078;-70
2022/09/10 09:20:52;;;;;;;7.10;6.15;;;;;;;9.89;100.00;100133.30;1742357;82;20991;-68
2022/09/10 09:23:36;;;;;;;8.35;7.55;;;;;;;9.90;100.00;100136.29;1728203;80;21242;-78
2022/09/10 09:26:10;;;;;;;7.08;5.35;;;;;;;9.86;100.00;100136.47;1752033;80;21233;-71
2022/09/10 09:28:49;;;;;;;7.85;5.62;;;;;;;9.85;100.00;100136.17;1762932;80;21126;-70
2022/09/10 09:31:29;;;;;;;6.65;5.97;;;;;;;9.87;100.00;100133.56;1772437;81;21528;-69
2022/09/10 09:34:05;;;;;;;6.15;5.55;;;;;;;9.88;100.00;100132.48;1750623;81;21066;-69
2022/09/10 09:36:39;;;;;;;6.85;6.25;;;;;;;9.87;100.00;100134.08;1734923;80;21858;-71
2022/09/10 09:39:21;;;;;;;6.50;5.90;;;;;;;9.82;100.00;100132.63;1772426;80;20944;-68
2022/09/10 09:42:23;;;;;;;6.45;5.85;;;;;;;9.81;100.00;100133.66;1752149;80;21066;-82
2022/09/10 09:44:59;;;;;;;8.07;7.33;;;;;;;9.80;100.00;100136.88;1808722;79;21021;-93
2022/09/10 09:47:33;;;;;;;8.38;7.03;;;;;;;9.80;100.00;100139.56;1815151;79;21018;-92
2022/09/10 09:50:11;;;;;;;7.75;6.95;;;;;;;9.81;100.00;100125.09;1809425;79;21062;-88
2022/09/10 09:52:44;;;;;;;8.63;7.17;;;;;;;9.82;100.00;100132.10;1807352;79;21089;-86
2022/09/10 09:55:50;;;;;;;7.72;6.85;;;;;;;9.82;100.00;100128.07;1751025;79;21513;-87
2022/09/10 09:58:28;;;;;;;8.13;7.33;;;;;;;9.85;100.00;100122.73;1786999;79;20930;-89
2022/09/10 10:01:13;;;;;;;9.35;8.55;;;;;;;9.92;100.00;100124.27;1788852;79;20946;-85
2022/09/10 10:03:57;;;;;;;10.05;7.03;;;;;;;9.98;100.00;100134.06;1785764;79;21101;-93
2022/09/10 10:06:31;;;;;;;8.38;6.50;;;;;;;10.03;100.00;100122.08;1798053;79;20948;-88
2022/09/10 10:09:22;;;;;;;8.83;7.15;;;;;;;10.01;100.00;100112.63;1792103;79;21063;-86
2022/09/10 10:11:59;;;;;;;8.08;7.17;;;;;;;9.98;100.00;100121.97;1792062;79;20987;-87
2022/09/10 10:14:36;;;;;;;12.85;8.05;;;;;;;9.98;100.00;100117.11;1790418;79;21147;-83
2022/09/10 10:17:34;;;;;;;9.63;7.62;;;;;;;9.93;100.00;100123.72;1767619;80;21524;-81
2022/09/10 10:20:11;;;;;;;9.10;8.20;;;;;;;9.91;100.00;100110.54;1755114;80;21015;-82
2022/09/10 10:22:47;;;;;;;10.05;6.70;;;;;;;9.90;100.00;100104.87;1745860;80;21019;-83
2022/09/10 10:25:40;;;;;;;8.43;7.62;;;;;;;9.88;100.00;100100.24;1766634;81;21007;-83
2022/09/10 10:28:23;;;;;;;8.15;6.92;;;;;;;9.90;100.00;100100.84;1768558;80;20995;-85
2022/09/10 10:30:53;;;;;;;9.60;7.37;;;;;;;9.96;100.00;100099.91;1769731;80;21806;-86
2022/09/10 10:33:30;;;;;;;8.73;7.00;;;;;;;9.93;100.00;100099.53;1753266;80;21058;-86
2022/09/10 10:36:32;;;;;;;6.80;6.12;;;;;;;9.93;100.00;100096.84;1768437;80;21514;-81
2022/09/10 10:39:11;;;;;;;7.33;6.45;;;;;;;9.94;100.00;100091.77;1743439;82;20978;-85
2022/09/10 10:41:51;;;;;;;7.10;6.50;;;;;;;9.96;100.00;100092.37;1724507;80;21059;-83
2022/09/10 10:44:56;;;;;;;8.23;7.10;;;;;;;10.00;100.00;100096.21;1715003;82;21169;-81
2022/09/10 10:47:49;;;;;;;8.05;7.25;;;;;;;10.05;100.00;100082.36;1634615;86;21040;-84
2022/09/10 10:50:32;;;;;;;8.65;7.33;;;;;;;10.08;100.00;100082.40;1748184;80;21019;-82
2022/09/10 10:53:37;;;;;;;7.95;7.08;;;;;;;10.08;100.00;100070.30;1744639;80;21063;-81
2022/09/10 10:56:18;;;;;;;7.28;6.40;;;;;;;10.10;100.00;100072.25;1679225;84;21139;-85
2022/09/10 10:59:14;;;;;;;7.92;7.12;;;;;;;10.10;100.00;100074.11;1671457;82;21327;-85
2022/09/10 11:01:51;;;;;;;7.50;6.90;;;;;;;10.10;100.00;100067.39;1705830;83;21110;-83
2022/09/10 11:04:52;;;;;;;7.03;6.42;;;;;;;10.10;100.00;100064.70;1705894;82;21489;-84
2022/09/10 11:07:32;;;;;;;9.40;8.55;;;;;;;10.10;100.00;100056.12;1742540;82;21050;-85
2022/09/10 11:10:20;;;;;;;8.53;7.50;;;;;;;10.08;100.00;100057.69;1745622;80;20979;-84
2022/09/10 11:13:12;;;;;;;7.78;6.72;;;;;;;10.03;100.00;100056.77;1765099;80;21265;-81
2022/09/10 11:16:03;;;;;;;7.28;6.60;;;;;;;10.01;100.00;100057.55;1762518;80;21042;-82
2022/09/10 11:18:41;;;;;;;10.25;8.45;;;;;;;9.98;100.00;100054.79;1748932;80;21608;-81
2022/09/10 11:21:23;;;;;;;7.95;6.92;;;;;;;10.01;100.00;100058.36;1757125;80;21027;-83
2022/09/10 11:24:01;;;;;;;8.20;7.25;;;;;;;10.05;100.00;100059.52;1742732;82;21097;-82
2022/09/10 11:27:00;;;;;;;8.88;8.03;;;;;;;10.13;100.00;100047.57;1715735;80;21629;-81
2022/09/10 11:29:47;;;;;;;9.45;7.60;;;;;;;10.11;100.00;100042.98;1742977;82;21522;-84
2022/09/10 11:32:39;;;;;;;8.05;6.90;;;;;;;10.10;100.00;100044.55;1759276;80;21083;-84
2022/09/10 11:35:46;;;;;;;9.70;8.70;;;;;;;10.08;100.00;100038.06;1736126;80;21066;-84
2022/09/10 11:38:28;;;;;;;9.53;8.30;;;;;;;10.10;100.00;100031.93;1769543;80;21062;-85
2022/09/10 11:41:12;;;;;;;9.58;8.68;;;;;;;10.10;100.00;100029.77;1764626;79;21891;-86
2022/09/10 11:44:13;;;;;;;10.95;9.85;;;;;;;10.08;100.00;100021.94;1752071;80;20995;-88
2022/09/10 11:47:11;;;;;;;12.85;11.33;;;;;;;10.08;100.00;100018.72;1715692;82;21010;-87
2022/09/10 11:49:59;;;;;;;11.00;9.60;;;;;;;10.12;100.00;100027.67;1731584;80;20932;-88
2022/09/10 11:52:35;;;;;;;10.95;9.83;;;;;;;10.12;100.00;100012.89;1726380;82;21051;-86
2022/09/10 11:55:07;;;;;;;11.93;10.72;;;;;;;10.17;100.00;100014.37;1740934;80;21186;-85